Time;durP1;ratioP1;P1;durP2;ratioP2;P2;SDS_P1;SDS_P2;PMS_P1;PMS_P2;Temp;Humidity;BMP_temperature;BMP_pressure;BME280_temperature;BME280_humidity;BME280_pressure;Samples;Min_cycle;Max_cycle;Signal;HPM_P1;HPM_P2
2022/12/10 00:02:29;;;;;;;47.13;19.27;;;;;2.00;94942.00;;;;8402052;28;20225;-69
2022/12/10 00:11:32;;;;;;;42.27;18.57;;;;;2.00;94952.00;;;;8401981;28;20207;-69
2022/12/10 00:15:35;;;;;;;49.13;19.73;;;;;2.10;94963.00;;;;8402053;28;20195;-69
2022/12/10 00:19:38;;;;;;;45.23;20.10;;;;;2.20;94964.00;;;;8400504;28;20533;-69
2022/12/10 00:23:42;;;;;;;47.03;19.97;;;;;2.20;94963.00;;;;8401690;28;20222;-68
2022/12/10 00:27:46;;;;;;;54.43;21.40;;;;;2.10;94948.00;;;;8400436;28;20191;-68
2022/12/10 00:31:49;;;;;;;54.73;20.63;;;;;2.10;94956.00;;;;8401420;28;20202;-69
2022/12/10 00:35:53;;;;;;;52.70;20.50;;;;;2.10;94958.00;;;;8400857;28;20210;-68
2022/12/10 00:39:56;;;;;;;55.23;22.73;;;;;2.10;94959.00;;;;8400126;28;20203;-68
2022/12/10 00:44:00;;;;;;;58.97;21.97;;;;;2.10;94957.00;;;;8400135;28;20250;-69
2022/12/10 00:48:34;;;;;;;44.23;19.63;;;;;2.10;94965.00;;;;8401389;28;20533;-68
2022/12/10 00:52:37;;;;;;;50.17;20.53;;;;;2.10;94954.00;;;;8400529;28;20686;-68
2022/12/10 00:56:40;;;;;;;49.70;21.40;;;;;2.10;94937.00;;;;8400147;28;20199;-68
2022/12/10 01:00:45;;;;;;;49.00;21.43;;;;;2.00;94965.00;;;;8400857;28;20568;-68
2022/12/10 01:04:52;;;;;;;49.67;21.30;;;;;2.10;94997.00;;;;8400115;28;20732;-68
2022/12/10 01:08:57;;;;;;;46.63;20.37;;;;;2.10;94997.00;;;;8399781;28;20191;-68
2022/12/10 01:13:00;;;;;;;52.27;20.77;;;;;2.20;95002.00;;;;8399711;28;20261;-68
2022/12/10 01:17:07;;;;;;;51.90;20.90;;;;;2.20;94997.00;;;;8400542;28;20206;-68
2022/12/10 01:21:12;;;;;;;55.83;22.83;;;;;2.20;95000.00;;;;8399777;28;20625;-68
2022/12/10 01:25:15;;;;;;;49.93;20.20;;;;;2.30;95005.00;;;;8399533;28;20231;-68
2022/12/10 01:29:19;;;;;;;50.37;20.53;;;;;2.40;95014.00;;;;8399223;28;20658;-68
2022/12/10 01:33:23;;;;;;;51.77;21.37;;;;;2.40;95016.00;;;;8398929;28;20203;-68
2022/12/10 01:37:26;;;;;;;48.03;20.57;;;;;2.40;94999.00;;;;8399041;28;20629;-68
2022/12/10 01:41:32;;;;;;;52.53;21.53;;;;;2.30;95004.00;;;;8398809;28;20301;-68
2022/12/10 01:45:35;;;;;;;53.00;20.80;;;;;2.20;95003.00;;;;8399321;28;20690;-68
2022/12/10 01:49:41;;;;;;;53.17;22.00;;;;;2.00;95004.00;;;;8399167;28;20199;-67
2022/12/10 01:53:46;;;;;;;49.20;20.87;;;;;1.90;94998.00;;;;8398217;28;20205;-68
2022/12/10 01:57:49;;;;;;;55.67;22.17;;;;;1.80;94998.00;;;;8398671;28;20206;-68
2022/12/10 02:01:59;;;;;;;57.67;22.97;;;;;1.70;95005.00;;;;8398769;28;20638;-68
2022/12/10 02:06:33;;;;;;;60.33;21.60;;;;;1.60;95008.00;;;;8398145;28;20314;-68
2022/12/10 02:10:56;;;;;;;52.47;22.30;;;;;1.50;95007.00;;;;8399124;28;20294;-68
2022/12/10 02:15:04;;;;;;;55.13;21.07;;;;;1.40;95033.00;;;;8397665;28;20195;-68
2022/12/10 02:19:14;;;;;;;55.50;20.97;;;;;1.50;95031.00;;;;8397900;28;20194;-68
2022/12/10 02:23:25;;;;;;;56.57;22.03;;;;;1.60;95032.00;;;;8397938;28;20223;-68
2022/12/10 02:27:36;;;;;;;55.53;20.60;;;;;1.70;95025.00;;;;8397914;28;20230;-68
2022/12/10 02:31:44;;;;;;;51.87;20.67;;;;;1.70;95016.00;;;;8397407;28;20184;-68
2022/12/10 02:35:50;;;;;;;60.40;23.10;;;;;1.60;95022.00;;;;8398204;28;20643;-68
2022/12/10 02:40:26;;;;;;;55.20;22.07;;;;;1.70;95008.00;;;;8397289;28;20188;-68
2022/12/10 02:44:31;;;;;;;50.90;20.47;;;;;1.80;95018.00;;;;8402615;28;20280;-68
2022/12/10 02:48:36;;;;;;;57.67;21.13;;;;;1.90;95019.00;;;;8404676;28;20230;-68
2022/12/10 02:52:39;;;;;;;53.20;20.87;;;;;2.10;95015.00;;;;8404029;28;20241;-68
2022/12/10 02:56:50;;;;;;;57.07;21.03;;;;;2.10;95006.00;;;;8404055;28;20206;-68
2022/12/10 03:01:03;;;;;;;56.67;22.27;;;;;2.10;94996.00;;;;8431412;22;20203;-68
2022/12/10 03:05:14;;;;;;;57.13;21.93;;;;;2.10;94998.00;;;;8377450;28;20678;-69
2022/12/10 03:09:22;;;;;;;55.87;21.90;;;;;2.10;94987.00;;;;8391051;28;20292;-68
2022/12/10 03:13:30;;;;;;;56.80;22.00;;;;;2.10;94984.00;;;;8389768;28;20199;-68
2022/12/10 03:17:34;;;;;;;65.73;23.37;;;;;2.00;94978.00;;;;8371963;28;20210;-69
2022/12/10 03:21:41;;;;;;;62.67;22.47;;;;;2.00;94977.00;;;;8390056;28;20649;-69
2022/12/10 03:25:45;;;;;;;55.90;21.63;;;;;2.00;94991.00;;;;8386751;28;20226;-68
2022/12/10 03:29:51;;;;;;;61.77;21.97;;;;;2.10;94981.00;;;;8369139;28;20252;-69
2022/12/10 03:33:55;;;;;;;62.03;21.93;;;;;2.20;94997.00;;;;8391746;28;20203;-69
2022/12/10 03:38:00;;;;;;;58.43;22.80;;;;;2.20;94999.00;;;;8369547;28;20556;-69
2022/12/10 03:42:04;;;;;;;59.37;22.40;;;;;2.30;94995.00;;;;8391200;28;20814;-69
2022/12/10 03:46:07;;;;;;;65.57;24.40;;;;;2.20;94990.00;;;;8389721;28;20231;-69
2022/12/10 03:50:11;;;;;;;60.27;23.20;;;;;2.10;94988.00;;;;8386072;28;20230;-69
2022/12/10 03:54:16;;;;;;;61.83;23.83;;;;;2.10;94994.00;;;;8386876;28;20553;-69
2022/12/10 03:58:19;;;;;;;63.67;22.20;;;;;2.00;95005.00;;;;8387067;28;20716;-69
2022/12/10 04:02:22;;;;;;;64.27;22.90;;;;;2.10;94998.00;;;;8403850;28;20229;-69
2022/12/10 04:06:25;;;;;;;59.77;22.93;;;;;2.00;94987.00;;;;8422203;28;20232;-69
2022/12/10 04:10:30;;;;;;;53.83;21.57;;;;;2.00;94994.00;;;;8421566;28;20214;-69
2022/12/10 04:18:57;;;;;;;59.23;22.27;;;;;2.00;94989.00;;;;8381667;28;20202;-69
2022/12/10 04:27:27;;;;;;;65.13;24.30;;;;;2.00;94991.00;;;;8403473;28;21059;-70
2022/12/10 04:31:30;;;;;;;61.03;22.40;;;;;2.00;95001.00;;;;8410959;28;20199;-70
2022/12/10 04:35:33;;;;;;;62.63;23.63;;;;;2.10;95009.00;;;;8420675;28;20904;-70
2022/12/10 04:39:36;;;;;;;59.10;22.53;;;;;2.10;95003.00;;;;8406669;28;20200;-70
2022/12/10 04:43:41;;;;;;;62.00;22.40;;;;;2.10;95005.00;;;;8420728;28;20222;-70
2022/12/10 04:47:44;;;;;;;66.30;23.53;;;;;2.10;95001.00;;;;8411504;28;20199;-70
2022/12/10 04:51:47;;;;;;;63.93;23.70;;;;;2.10;95009.00;;;;8388384;28;20204;-70
2022/12/10 04:55:50;;;;;;;62.77;23.00;;;;;2.10;95012.00;;;;8401004;28;20224;-70
2022/12/10 04:59:55;;;;;;;64.03;24.63;;;;;2.10;95022.00;;;;8394344;28;20202;-70
2022/12/10 05:04:00;;;;;;;73.63;25.20;;;;;2.10;95012.00;;;;8417215;28;20695;-70
2022/12/10 05:08:04;;;;;;;71.17;23.73;;;;;2.10;95011.00;;;;8415174;28;20199;-70
2022/12/10 05:12:07;;;;;;;69.60;24.57;;;;;2.10;95008.00;;;;8394995;28;20606;-70
2022/12/10 05:16:14;;;;;;;73.20;24.37;;;;;2.10;95004.00;;;;8420623;28;20203;-70
2022/12/10 05:20:17;;;;;;;67.40;25.30;;;;;2.10;95014.00;;;;8399067;28;20200;-70
2022/12/10 05:24:20;;;;;;;73.10;24.47;;;;;2.10;95002.00;;;;8411148;28;20238;-70
2022/12/10 05:28:23;;;;;;;69.87;24.57;;;;;2.10;94993.00;;;;8399297;28;20206;-70
2022/12/10 05:32:28;;;;;;;69.67;24.20;;;;;2.10;95003.00;;;;8420384;28;20209;-71
2022/12/10 05:36:32;;;;;;;73.93;25.47;;;;;2.00;95000.00;;;;8408874;28;20214;-70
2022/12/10 05:40:35;;;;;;;75.87;27.30;;;;;2.10;95005.00;;;;8400146;28;20222;-70
2022/12/10 05:44:38;;;;;;;73.50;24.80;;;;;2.00;95011.00;;;;8387783;28;20318;-70
2022/12/10 05:48:43;;;;;;;69.37;25.73;;;;;2.10;95014.00;;;;8416335;28;20214;-70
2022/12/10 05:52:46;;;;;;;70.47;24.13;;;;;2.00;95009.00;;;;8385541;28;20190;-70
2022/12/10 05:56:49;;;;;;;69.50;24.57;;;;;2.10;95003.00;;;;8399497;28;20235;-70
2022/12/10 06:00:52;;;;;;;74.87;26.97;;;;;2.10;95009.00;;;;8413077;28;20588;-70
2022/12/10 06:04:57;;;;;;;72.07;25.40;;;;;2.00;95010.00;;;;8416790;28;20217;-70
2022/12/10 06:09:00;;;;;;;72.00;25.60;;;;;2.00;95003.00;;;;8414984;28;20197;-70
2022/12/10 06:13:03;;;;;;;64.63;23.43;;;;;2.00;95013.00;;;;8405732;28;20206;-70
2022/12/10 06:17:06;;;;;;;70.37;25.33;;;;;2.00;95014.00;;;;8398190;28;20248;-70
2022/12/10 06:21:13;;;;;;;72.07;26.63;;;;;2.00;95018.00;;;;8401805;28;20198;-70
2022/12/10 06:25:16;;;;;;;72.33;24.67;;;;;2.00;95016.00;;;;8395896;28;20223;-70
2022/12/10 06:29:20;;;;;;;72.30;26.37;;;;;2.00;95020.00;;;;8403790;28;20209;-71
2022/12/10 06:33:23;;;;;;;67.97;25.10;;;;;2.00;95013.00;;;;8398224;28;20200;-71
2022/12/10 06:37:28;;;;;;;70.47;25.63;;;;;2.00;95036.00;;;;8401614;28;20207;-75
2022/12/10 06:41:31;;;;;;;73.27;24.73;;;;;2.10;95049.00;;;;8398363;28;20203;-74
2022/12/10 06:45:34;;;;;;;67.03;25.53;;;;;2.10;95048.00;;;;8388417;28;20895;-75
2022/12/10 06:49:37;;;;;;;71.80;26.10;;;;;2.10;95052.00;;;;8398171;28;20600;-74
2022/12/10 06:53:42;;;;;;;72.37;26.03;;;;;2.20;95050.00;;;;8413670;28;20254;-75
2022/12/10 06:57:45;;;;;;;64.27;25.23;;;;;2.30;95054.00;;;;8400671;28;20191;-74
2022/12/10 07:01:49;;;;;;;69.30;23.77;;;;;2.30;95057.00;;;;8400918;28;20258;-74
2022/12/10 07:05:52;;;;;;;69.83;26.33;;;;;2.40;95049.00;;;;8399112;28;20226;-74
2022/12/10 07:09:59;;;;;;;66.43;26.00;;;;;2.30;95043.00;;;;8400456;28;20215;-73
2022/12/10 07:14:03;;;;;;;72.50;26.63;;;;;2.30;95040.00;;;;8396598;28;20310;-74
2022/12/10 07:18:07;;;;;;;73.80;25.43;;;;;2.20;95037.00;;;;8395404;28;20194;-74
2022/12/10 07:22:10;;;;;;;62.37;23.17;;;;;2.20;95038.00;;;;8401489;28;20265;-74
2022/12/10 07:26:14;;;;;;;71.17;25.97;;;;;2.10;95037.00;;;;8397628;28;20309;-74
2022/12/10 07:30:17;;;;;;;68.03;23.07;;;;;2.20;95041.00;;;;8405354;28;20252;-74
2022/12/10 07:34:20;;;;;;;69.63;25.07;;;;;2.10;95052.00;;;;8423792;28;20820;-74
2022/12/10 07:38:23;;;;;;;68.07;25.63;;;;;2.20;95053.00;;;;8416656;28;20202;-74
2022/12/10 07:42:28;;;;;;;71.13;26.50;;;;;2.20;95055.00;;;;8406750;28;20749;-74
2022/12/10 07:46:32;;;;;;;63.83;24.33;;;;;2.20;95053.00;;;;8414990;28;20273;-74
2022/12/10 07:50:35;;;;;;;70.33;24.63;;;;;2.30;95070.00;;;;8416684;28;20204;-73
2022/12/10 07:54:38;;;;;;;66.20;24.30;;;;;2.30;95078.00;;;;8407720;28;20256;-74
2022/12/10 07:58:45;;;;;;;68.50;25.30;;;;;2.30;95078.00;;;;8400250;28;20201;-73
2022/12/10 08:02:48;;;;;;;56.77;22.57;;;;;2.40;95089.00;;;;8416872;28;20245;-74
2022/12/10 08:06:55;;;;;;;61.77;23.10;;;;;2.50;95089.00;;;;8421219;28;20234;-74
2022/12/10 08:11:00;;;;;;;62.67;23.73;;;;;2.70;95090.00;;;;8417744;28;20205;-74
2022/12/10 08:15:05;;;;;;;60.67;23.50;;;;;2.70;95087.00;;;;8420192;28;20258;-73
2022/12/10 08:19:09;;;;;;;64.43;23.40;;;;;2.70;95094.00;;;;8421205;28;20195;-74
2022/12/10 08:23:15;;;;;;;69.73;22.47;;;;;2.70;95092.00;;;;8422965;28;20601;-73
2022/12/10 08:27:18;;;;;;;62.43;24.03;;;;;2.80;95093.00;;;;8402166;28;20291;-74
2022/12/10 08:31:24;;;;;;;58.87;22.27;;;;;2.70;95091.00;;;;8411117;28;20591;-76
2022/12/10 08:35:28;;;;;;;59.80;23.20;;;;;2.70;95090.00;;;;8408346;28;20195;-74
2022/12/10 08:39:31;;;;;;;54.00;21.60;;;;;2.70;95090.00;;;;8401483;28;20225;-74
2022/12/10 08:43:34;;;;;;;61.63;23.37;;;;;2.70;95101.00;;;;8418811;28;20207;-75
2022/12/10 08:47:39;;;;;;;67.23;26.00;;;;;2.80;95089.00;;;;8405164;28;20227;-75
2022/12/10 08:51:42;;;;;;;64.83;23.10;;;;;2.80;95088.00;;;;8421286;28;20248;-74
2022/12/10 08:55:45;;;;;;;60.70;24.27;;;;;2.80;95106.00;;;;8414290;28;20818;-74
2022/12/10 08:59:51;;;;;;;63.60;23.30;;;;;2.80;95105.00;;;;8392577;28;20219;-74
2022/12/10 09:03:55;;;;;;;58.00;22.77;;;;;2.70;95108.00;;;;8415570;28;20232;-74
2022/12/10 09:07:58;;;;;;;59.80;22.90;;;;;2.70;95097.00;;;;8419824;28;20255;-75
2022/12/10 09:12:01;;;;;;;58.10;22.70;;;;;2.80;95092.00;;;;8419053;28;20205;-74
2022/12/10 09:16:05;;;;;;;58.57;22.00;;;;;2.80;95089.00;;;;8419947;28;20233;-74
2022/12/10 09:20:10;;;;;;;65.67;24.67;;;;;2.80;95093.00;;;;8418403;28;20393;-75
2022/12/10 09:24:13;;;;;;;62.27;24.30;;;;;2.90;95088.00;;;;8419724;28;20292;-74
2022/12/10 09:28:17;;;;;;;58.03;23.63;;;;;3.00;95106.00;;;;8407197;28;20335;-74
2022/12/10 09:32:20;;;;;;;63.73;24.90;;;;;3.10;95109.00;;;;8419657;28;20202;-75
2022/12/10 09:36:24;;;;;;;65.00;25.87;;;;;3.10;95105.00;;;;8418356;28;20232;-75
2022/12/10 09:40:41;;;;;;;59.33;24.13;;;;;3.20;95103.00;;;;8408352;28;20191;-75
2022/12/10 09:44:53;;;;;;;60.33;22.50;;;;;3.20;95102.00;;;;8419010;28;20568;-76
2022/12/10 09:49:07;;;;;;;57.80;23.93;;;;;3.20;95102.00;;;;8418567;28;20223;-75
2022/12/10 09:53:16;;;;;;;57.23;24.20;;;;;3.20;95079.00;;;;8415471;28;20199;-76
2022/12/10 09:57:23;;;;;;;61.03;25.00;;;;;3.20;95089.00;;;;8406991;28;20210;-76
2022/12/10 10:01:29;;;;;;;61.90;24.60;;;;;3.40;95077.00;;;;8417198;28;20280;-76
2022/12/10 10:05:38;;;;;;;63.33;25.20;;;;;3.40;95072.00;;;;8415110;28;20256;-76
2022/12/10 10:09:42;;;;;;;52.73;21.87;;;;;3.30;95070.00;;;;8415860;28;20208;-76
2022/12/10 10:13:50;;;;;;;59.93;23.30;;;;;3.30;95074.00;;;;8417967;28;20716;-76
2022/12/10 10:17:57;;;;;;;58.20;22.10;;;;;3.30;95072.00;;;;8417728;28;20218;-76
2022/12/10 10:22:00;;;;;;;55.70;21.90;;;;;3.30;95070.00;;;;8417609;28;20260;-76
2022/12/10 10:26:04;;;;;;;50.47;21.53;;;;;3.40;95060.00;;;;8411764;28;20233;-76
2022/12/10 10:30:15;;;;;;;60.67;23.13;;;;;3.50;95086.00;;;;8419650;28;20234;-76
2022/12/10 10:34:21;;;;;;;48.80;22.43;;;;;3.50;95098.00;;;;8412905;28;20210;-76
2022/12/10 10:38:28;;;;;;;55.67;21.90;;;;;3.50;95098.00;;;;8417297;28;20241;-76
2022/12/10 10:42:37;;;;;;;61.80;25.83;;;;;3.60;95091.00;;;;8416585;28;20225;-75
2022/12/10 10:46:42;;;;;;;50.27;20.80;;;;;3.60;95090.00;;;;8412418;28;20235;-75
2022/12/10 10:50:48;;;;;;;57.97;22.17;;;;;3.60;95092.00;;;;8415884;28;20210;-76
2022/12/10 10:54:51;;;;;;;53.60;21.90;;;;;3.60;95102.00;;;;8413450;28;20806;-75
2022/12/10 10:58:58;;;;;;;48.27;19.90;;;;;3.50;95103.00;;;;8399276;28;20260;-75
2022/12/10 11:03:02;;;;;;;49.70;21.20;;;;;3.50;95091.00;;;;8390392;28;20288;-75
2022/12/10 11:07:19;;;;;;;52.30;21.47;;;;;3.50;95087.00;;;;8418053;28;20230;-77
2022/12/10 11:11:26;;;;;;;53.03;21.93;;;;;3.70;95082.00;;;;8425705;28;20248;-77
2022/12/10 11:15:34;;;;;;;48.80;20.63;;;;;3.70;95075.00;;;;8423149;28;20636;-76
2022/12/10 11:19:43;;;;;;;56.07;24.00;;;;;3.70;95069.00;;;;8414152;28;20203;-76
2022/12/10 11:23:48;;;;;;;53.63;21.80;;;;;3.70;95048.00;;;;8406328;28;20618;-76
2022/12/10 11:28:01;;;;;;;52.13;21.80;;;;;3.70;95043.00;;;;8407595;28;20262;-77
2022/12/10 11:32:26;;;;;;;47.23;21.63;;;;;3.70;95043.00;;;;8409483;28;20244;-76
2022/12/10 11:36:39;;;;;;;56.30;22.90;;;;;3.70;95057.00;;;;8402620;28;20206;-75
2022/12/10 11:40:50;;;;;;;44.80;20.37;;;;;3.70;95052.00;;;;8405075;28;20663;-75
2022/12/10 11:45:02;;;;;;;49.77;19.83;;;;;3.80;95050.00;;;;8405928;28;20207;-75
2022/12/10 11:49:20;;;;;;;50.03;20.80;;;;;3.80;95050.00;;;;8398373;28;20227;-75
2022/12/10 11:53:47;;;;;;;41.87;18.47;;;;;3.90;95052.00;;;;8403822;28;20268;-75
2022/12/10 11:57:57;;;;;;;45.40;20.77;;;;;3.90;95061.00;;;;8404771;28;20188;-75
2022/12/10 12:02:19;;;;;;;39.03;18.17;;;;;4.00;95063.00;;;;8407215;28;20230;-75
2022/12/10 12:06:39;;;;;;;42.87;18.83;;;;;4.20;95060.00;;;;8407756;28;20305;-76
2022/12/10 12:10:55;;;;;;;47.83;20.13;;;;;4.20;95068.00;;;;8401871;28;20197;-76
2022/12/10 12:15:03;;;;;;;42.33;18.57;;;;;4.20;95060.00;;;;8409158;28;20199;-76
2022/12/10 12:19:13;;;;;;;44.63;18.60;;;;;4.10;95061.00;;;;8401355;28;20211;-76
2022/12/10 12:23:23;;;;;;;50.43;21.80;;;;;4.00;95062.00;;;;8388781;28;20261;-76
2022/12/10 12:27:31;;;;;;;53.90;20.33;;;;;3.90;95061.00;;;;8405140;28;20231;-76
2022/12/10 12:31:38;;;;;;;44.57;20.53;;;;;3.90;95058.00;;;;8421564;28;20207;-76
2022/12/10 12:35:43;;;;;;;51.03;20.87;;;;;3.90;95066.00;;;;8404870;28;20203;-76
2022/12/10 12:39:55;;;;;;;47.07;19.87;;;;;4.00;95071.00;;;;8403125;28;20219;-76
2022/12/10 12:44:04;;;;;;;44.70;19.60;;;;;4.00;95068.00;;;;8421654;28;20242;-76
2022/12/10 12:48:18;;;;;;;43.40;19.77;;;;;4.00;95081.00;;;;8405321;28;20616;-77
2022/12/10 12:52:32;;;;;;;39.10;18.60;;;;;4.00;95077.00;;;;8420686;28;20203;-76
2022/12/10 12:56:54;;;;;;;37.33;17.43;;;;;4.00;95079.00;;;;8405738;28;20237;-78
2022/12/10 13:01:04;;;;;;;39.57;17.70;;;;;3.90;95073.00;;;;8404062;28;20624;-78
2022/12/10 13:05:15;;;;;;;39.67;16.20;;;;;3.90;95081.00;;;;8396049;28;20667;-76
2022/12/10 13:09:27;;;;;;;37.53;16.70;;;;;3.90;95083.00;;;;8400077;28;20231;-77
2022/12/10 13:13:35;;;;;;;41.27;17.27;;;;;3.90;95077.00;;;;8409339;28;20205;-76
2022/12/10 13:17:39;;;;;;;40.27;18.27;;;;;3.90;95083.00;;;;8400071;28;20270;-77
2022/12/10 13:21:59;;;;;;;37.03;16.77;;;;;3.90;95107.00;;;;8409983;28;20199;-77
2022/12/10 13:26:03;;;;;;;35.23;15.73;;;;;3.90;95113.00;;;;8397551;28;20218;-77
2022/12/10 13:30:30;;;;;;;40.27;17.37;;;;;3.80;95110.00;;;;8395666;28;20692;-77
2022/12/10 13:34:36;;;;;;;36.43;14.43;;;;;3.80;95125.00;;;;8411265;28;20188;-76
2022/12/10 13:38:42;;;;;;;40.53;17.67;;;;;3.70;95121.00;;;;8394037;28;20280;-77
2022/12/10 13:47:32;;;;;;;37.90;16.13;;;;;3.60;95124.00;;;;8244336;28;20273;-76
2022/12/10 13:51:53;;;;;;;38.33;16.93;;;;;3.50;95120.00;;;;8328471;28;20206;-75
2022/12/10 13:56:03;;;;;;;38.93;16.90;;;;;3.50;95130.00;;;;8403147;28;20214;-75
2022/12/10 14:00:12;;;;;;;38.37;17.63;;;;;3.50;95139.00;;;;8403782;28;20195;-76
2022/12/10 14:04:34;;;;;;;39.63;17.13;;;;;3.50;95146.00;;;;8402762;28;20303;-75
2022/12/10 14:08:40;;;;;;;35.70;17.23;;;;;3.50;95146.00;;;;8418668;28;20533;-75
2022/12/10 14:12:46;;;;;;;41.53;17.77;;;;;3.60;95147.00;;;;8415219;28;20207;-76
2022/12/10 14:16:49;;;;;;;40.77;17.33;;;;;3.50;95146.00;;;;8417357;28;20203;-75
2022/12/10 14:21:04;;;;;;;37.23;15.50;;;;;3.50;95154.00;;;;8418902;28;20594;-74
2022/12/10 14:25:14;;;;;;;33.93;15.73;;;;;3.50;95154.00;;;;8417622;28;20296;-75
2022/12/10 14:29:20;;;;;;;33.33;14.70;;;;;3.60;95166.00;;;;8410799;28;20577;-75
2022/12/10 14:33:31;;;;;;;35.27;15.43;;;;;3.50;95170.00;;;;8407777;28;20672;-75
2022/12/10 14:37:37;;;;;;;31.20;15.07;;;;;3.50;95173.00;;;;8407242;28;20957;-74
2022/12/10 14:41:41;;;;;;;32.10;13.80;;;;;3.40;95184.00;;;;8405574;28;20299;-74
2022/12/10 14:45:47;;;;;;;34.93;15.10;;;;;3.40;95182.00;;;;8401827;28;21764;-75
2022/12/10 14:49:56;;;;;;;34.77;15.93;;;;;3.40;95190.00;;;;8425601;28;20219;-74
2022/12/10 14:54:00;;;;;;;51.10;21.13;;;;;3.30;95189.00;;;;8408911;28;20191;-74
2022/12/10 14:58:07;;;;;;;34.33;15.03;;;;;3.30;95186.00;;;;8415174;28;20549;-74
2022/12/10 15:02:17;;;;;;;38.60;16.37;;;;;3.30;95185.00;;;;8424128;28;20245;-76
2022/12/10 15:06:21;;;;;;;40.23;16.57;;;;;3.30;95192.00;;;;8422545;28;20191;-74
2022/12/10 15:10:29;;;;;;;38.57;16.10;;;;;3.30;95206.00;;;;8426346;28;20803;-74
2022/12/10 15:14:33;;;;;;;36.73;16.30;;;;;3.20;95207.00;;;;8415288;28;20203;-73
2022/12/10 15:18:39;;;;;;;36.40;16.97;;;;;3.10;95190.00;;;;8423306;28;20218;-74
2022/12/10 15:22:42;;;;;;;43.43;18.87;;;;;3.10;95203.00;;;;8421117;28;20207;-74
2022/12/10 15:26:48;;;;;;;38.13;17.77;;;;;3.00;95207.00;;;;8409396;28;20788;-74
2022/12/10 15:30:52;;;;;;;41.33;16.83;;;;;3.00;95214.00;;;;8422820;28;20235;-74
2022/12/10 15:34:58;;;;;;;40.60;17.33;;;;;2.90;95211.00;;;;8422921;28;20195;-74
2022/12/10 15:39:05;;;;;;;37.23;16.27;;;;;3.00;95214.00;;;;8422968;28;20210;-74
2022/12/10 15:43:25;;;;;;;37.47;17.07;;;;;3.00;95220.00;;;;8400921;28;20201;-75
2022/12/10 15:47:29;;;;;;;40.33;16.27;;;;;2.90;95216.00;;;;8400126;28;20259;-75
2022/12/10 15:51:32;;;;;;;42.10;16.90;;;;;2.90;95216.00;;;;8406327;28;21202;-73
2022/12/10 15:55:35;;;;;;;40.90;16.73;;;;;2.80;95226.00;;;;8406800;28;20195;-74
2022/12/10 15:59:40;;;;;;;34.70;16.77;;;;;2.80;95223.00;;;;8399236;28;20197;-74
2022/12/10 16:03:44;;;;;;;39.60;17.30;;;;;2.80;95216.00;;;;8406121;28;20238;-74
2022/12/10 16:07:49;;;;;;;44.37;17.47;;;;;2.80;95222.00;;;;8395400;28;20233;-73
2022/12/10 16:11:52;;;;;;;44.23;17.47;;;;;2.80;95219.00;;;;8411938;28;20204;-76
2022/12/10 16:15:59;;;;;;;45.33;18.20;;;;;2.80;95233.00;;;;8399180;28;20577;-76
2022/12/10 16:20:21;;;;;;;47.90;18.77;;;;;2.70;95242.00;;;;8421101;28;20245;-75
2022/12/10 16:24:24;;;;;;;41.90;18.23;;;;;2.60;95239.00;;;;8420217;28;20205;-75
2022/12/10 16:28:28;;;;;;;44.50;18.73;;;;;2.70;95244.00;;;;8410127;28;20235;-75
2022/12/10 16:32:34;;;;;;;42.30;19.33;;;;;2.60;95243.00;;;;8390294;28;20200;-74
2022/12/10 16:36:37;;;;;;;47.53;19.73;;;;;2.60;95249.00;;;;8399829;28;20206;-74
2022/12/10 16:40:42;;;;;;;40.40;19.30;;;;;2.60;95242.00;;;;8410433;28;20203;-74
2022/12/10 16:44:45;;;;;;;46.77;20.30;;;;;2.50;95248.00;;;;8407242;28;20203;-73
2022/12/10 16:48:50;;;;;;;47.43;20.73;;;;;2.50;95249.00;;;;8404886;28;20241;-73
2022/12/10 16:52:55;;;;;;;46.87;20.97;;;;;2.50;95245.00;;;;8404035;28;20706;-73
2022/12/10 16:56:58;;;;;;;47.23;19.17;;;;;2.50;95260.00;;;;8400428;28;20235;-73
2022/12/10 17:01:01;;;;;;;55.83;21.90;;;;;2.50;95262.00;;;;8398973;28;20202;-74
2022/12/10 17:05:15;;;;;;;49.63;22.00;;;;;2.40;95259.00;;;;8402613;28;20202;-74
2022/12/10 17:09:18;;;;;;;51.53;20.83;;;;;2.40;95268.00;;;;8401898;28;20757;-75
2022/12/10 17:13:25;;;;;;;46.67;20.43;;;;;2.40;95276.00;;;;8403063;28;20202;-74
2022/12/10 17:17:29;;;;;;;57.70;22.13;;;;;2.40;95279.00;;;;8406488;28;20270;-74
2022/12/10 17:21:33;;;;;;;54.17;21.83;;;;;2.40;95285.00;;;;8401451;28;20191;-75
2022/12/10 17:25:41;;;;;;;57.43;23.07;;;;;2.40;95273.00;;;;8400039;28;20198;-74
2022/12/10 17:29:52;;;;;;;54.23;22.27;;;;;2.40;95277.00;;;;8397648;28;20222;-74
2022/12/10 17:33:55;;;;;;;55.63;22.07;;;;;2.40;95289.00;;;;8404903;28;20208;-75
2022/12/10 17:38:00;;;;;;;55.33;23.67;;;;;2.30;95279.00;;;;8399462;28;20203;-74
2022/12/10 17:42:04;;;;;;;59.00;23.40;;;;;2.40;95286.00;;;;8402184;28;20197;-74
2022/12/10 17:46:10;;;;;;;58.43;24.43;;;;;2.40;95286.00;;;;8399341;28;20195;-75
2022/12/10 17:50:24;;;;;;;61.13;24.90;;;;;2.40;95283.00;;;;8403642;28;20232;-75
2022/12/10 17:54:35;;;;;;;63.40;25.07;;;;;2.40;95286.00;;;;8406411;28;20202;-75
2022/12/10 17:58:39;;;;;;;63.97;24.83;;;;;2.40;95280.00;;;;8397612;28;20210;-75
2022/12/10 18:02:42;;;;;;;60.93;24.40;;;;;2.30;95290.00;;;;8398870;28;20230;-75
2022/12/10 18:06:46;;;;;;;57.83;23.93;;;;;2.40;95297.00;;;;8399032;28;20203;-75
2022/12/10 18:10:54;;;;;;;62.53;25.67;;;;;2.40;95292.00;;;;8404798;28;20227;-75
2022/12/10 18:14:57;;;;;;;67.23;25.57;;;;;2.40;95300.00;;;;8406197;28;20696;-75
2022/12/10 18:19:03;;;;;;;64.77;26.93;;;;;2.40;95301.00;;;;8401306;28;20713;-75
2022/12/10 18:23:08;;;;;;;74.97;30.30;;;;;2.30;95306.00;;;;8402121;28;20305;-75
2022/12/10 18:27:16;;;;;;;65.00;27.03;;;;;2.30;95310.00;;;;8399718;28;20601;-75
2022/12/10 18:31:22;;;;;;;63.27;26.40;;;;;2.40;95313.00;;;;8401745;28;20219;-75
2022/12/10 18:35:29;;;;;;;58.37;22.87;;;;;2.30;95324.00;;;;8396250;28;20199;-75
2022/12/10 18:39:34;;;;;;;56.00;23.77;;;;;2.30;95312.00;;;;8392747;28;20203;-76
2022/12/10 18:43:38;;;;;;;66.17;25.00;;;;;2.20;95309.00;;;;8405170;28;20263;-75
2022/12/10 18:47:42;;;;;;;59.03;23.97;;;;;2.20;95318.00;;;;8394324;28;20881;-76
2022/12/10 18:51:45;;;;;;;58.20;23.00;;;;;2.10;95321.00;;;;8402003;28;20226;-74
2022/12/10 18:55:48;;;;;;;46.37;19.53;;;;;2.10;95330.00;;;;8407229;28;20293;-74
2022/12/10 18:59:52;;;;;;;38.30;15.90;;;;;2.00;95323.00;;;;8402658;28;20298;-75
2022/12/10 19:03:56;;;;;;;39.17;15.73;;;;;1.80;95327.00;;;;8403570;28;20867;-76
2022/12/10 19:08:00;;;;;;;35.07;14.33;;;;;1.60;95327.00;;;;8403448;28;20211;-76
2022/12/10 19:12:03;;;;;;;39.17;16.47;;;;;1.60;95340.00;;;;8385573;28;20247;-76
2022/12/10 19:16:11;;;;;;;48.17;17.87;;;;;1.50;95326.00;;;;8396085;28;20229;-76
2022/12/10 19:20:18;;;;;;;39.87;15.83;;;;;1.50;95333.00;;;;8404603;28;20217;-76
2022/12/10 19:24:21;;;;;;;42.10;16.23;;;;;1.50;95343.00;;;;8415643;28;20938;-76
2022/12/10 19:28:24;;;;;;;39.63;16.20;;;;;1.50;95345.00;;;;8404923;28;20200;-76
2022/12/10 19:32:28;;;;;;;45.67;16.13;;;;;1.50;95344.00;;;;8392527;28;20330;-76
2022/12/10 19:36:33;;;;;;;47.17;17.63;;;;;1.50;95350.00;;;;8415996;28;20201;-76
2022/12/10 19:40:36;;;;;;;50.87;18.70;;;;;1.50;95342.00;;;;8404024;28;20250;-76
2022/12/10 19:44:39;;;;;;;50.33;18.30;;;;;1.40;95340.00;;;;8404168;28;20191;-75
2022/12/10 19:48:44;;;;;;;48.73;17.63;;;;;1.40;95344.00;;;;8408779;28;20553;-75
2022/12/10 19:52:48;;;;;;;45.17;16.40;;;;;1.40;95350.00;;;;8393450;28;20233;-76
2022/12/10 19:56:51;;;;;;;53.43;18.23;;;;;1.30;95347.00;;;;8411079;28;20288;-75
2022/12/10 20:00:54;;;;;;;37.97;13.53;;;;;1.30;95350.00;;;;8410318;28;20663;-76
2022/12/10 20:04:59;;;;;;;26.87;11.27;;;;;1.30;95351.00;;;;8414482;28;20197;-75
2022/12/10 20:09:04;;;;;;;41.40;15.80;;;;;1.20;95340.00;;;;8420099;28;20200;-75
2022/12/10 20:13:07;;;;;;;39.50;14.90;;;;;1.20;95359.00;;;;8398891;28;20265;-75
2022/12/10 20:17:13;;;;;;;51.63;16.70;;;;;1.20;95359.00;;;;8405419;28;20225;-76
2022/12/10 20:21:18;;;;;;;39.47;16.03;;;;;1.20;95353.00;;;;8394151;28;20264;-75
2022/12/10 20:25:22;;;;;;;45.00;16.23;;;;;1.20;95350.00;;;;8403878;28;20199;-75
2022/12/10 20:29:26;;;;;;;43.83;17.10;;;;;1.20;95354.00;;;;8411819;28;20206;-75
2022/12/10 20:33:29;;;;;;;41.30;14.70;;;;;1.30;95342.00;;;;8411211;28;20707;-76
2022/12/10 20:37:50;;;;;;;38.27;15.37;;;;;1.20;95340.00;;;;8399715;28;20247;-76